Maersk Bulan — 9V7693 — position and weather

sailwx.info

Track history (hours):
 
Tides and Currents Weather Stations Pressure Air Temp Water Temp Dewpoint Dewpoint Depression Visibility Wind Speed Wind Dir Waves Ship Positions

Maersk Bulan

Last reported at 2014-Jun-18 03:21 UTC. Time now 2014-Jul-24 17:00 UTC.
Position N 36°02' W 005°24'.
Warning: this ship's position is 36 days out of date.

Length 223 m; draft 10.5 m.

Type: Ship (hazmat cat A). MMSI: 563455000.

Date/timePositionNaut miles runAvg speedWind from/ knotsBaromVisibWave heightAir tempDewpointWater temp
2014-Jun-18 03:21N 36°02' W 005°24'  
2014-Jun-15 04:10N 37°22' E 004°58'811.7
2014-Jun-15 03:28N 37°23' E 005°08'1212.8
2014-Jun-15 02:33N 37°25' E 005°22'12211.9
2014-Jun-14 16:22N 37°45' E 007°54'8711.1
2014-Jun-14 08:31N 37°44' E 009°44'1010.7
2014-Jun-14 07:33N 37°40' E 009°56'1110.6
2014-Jun-14 06:31N 37°39' E 010°10'1010.3
2014-Jun-14 05:33N 37°37' E 010°22'2410.8
2014-Jun-14 03:21N 37°32' E 010°51'3111.2
2014-Jun-14 00:34N 37°22' E 011°29'3811.7
2014-Jun-13 21:16N 37°19' E 012°17'3712.0
2014-Jun-13 18:11N 37°15' E 013°03'812.1
2014-Jun-13 17:33N 37°12' E 013°12'1211.7
2014-Jun-13 16:33N 37°07' E 013°25'1211.9
2014-Jun-13 15:33N 37°01' E 013°38'1211.8
2014-Jun-13 14:33N 36°56' E 013°51'1211.8
2014-Jun-13 13:34N 36°51' E 014°04'1211.8
2014-Jun-13 12:33N 36°46' E 014°18'1111.4
2014-Jun-13 11:33N 36°41' E 014°31'1211.8
2014-Jun-13 10:33N 36°35' E 014°44'1211.7
2014-Jun-13 09:33N 36°30' E 014°57'1211.6
2014-Jun-13 08:33N 36°29' E 015°11'42810.8
2014-Jun-11 17:03N 37°26' E 024°03'2311.8
2014-Jun-11 15:05N 37°45' E 024°20'5712.2
2014-Jun-11 10:26N 38°26' E 025°10'1511.8
2014-Jun-11 09:11N 38°37' E 025°23'  
Track history (hours):
 
Tides and Currents Weather Stations Pressure Air Temp Water Temp Dewpoint Dewpoint Depression Visibility Wind Speed Wind Dir Waves Ship Positions

Maersk Bulan

Last reported at 2014-Jun-18 03:21 UTC. Time now 2014-Jul-24 17:00 UTC.
Position N 36°02' W 005°24'.
Warning: this ship's position is 36 days out of date.

Length 223 m; draft 10.5 m.

Type: Ship (hazmat cat A). MMSI: 563455000.

Date/timePositionNaut miles runAvg speedWind from/ knotsBaromVisibWave heightAir tempDewpointWater temp
2014-Jun-18 03:21N 36°02' W 005°24'  
2014-Jun-15 04:10N 37°22' E 004°58'811.7
2014-Jun-15 03:28N 37°23' E 005°08'1212.8
2014-Jun-15 02:33N 37°25' E 005°22'12211.9
2014-Jun-14 16:22N 37°45' E 007°54'8711.1
2014-Jun-14 08:31N 37°44' E 009°44'1010.7
2014-Jun-14 07:33N 37°40' E 009°56'1110.6
2014-Jun-14 06:31N 37°39' E 010°10'1010.3
2014-Jun-14 05:33N 37°37' E 010°22'2410.8
2014-Jun-14 03:21N 37°32' E 010°51'3111.2
2014-Jun-14 00:34N 37°22' E 011°29'3811.7
2014-Jun-13 21:16N 37°19' E 012°17'3712.0
2014-Jun-13 18:11N 37°15' E 013°03'812.1
2014-Jun-13 17:33N 37°12' E 013°12'1211.7
2014-Jun-13 16:33N 37°07' E 013°25'1211.9
2014-Jun-13 15:33N 37°01' E 013°38'1211.8
2014-Jun-13 14:33N 36°56' E 013°51'1211.8
2014-Jun-13 13:34N 36°51' E 014°04'1211.8
2014-Jun-13 12:33N 36°46' E 014°18'1111.4
2014-Jun-13 11:33N 36°41' E 014°31'1211.8
2014-Jun-13 10:33N 36°35' E 014°44'1211.7
2014-Jun-13 09:33N 36°30' E 014°57'1211.6
2014-Jun-13 08:33N 36°29' E 015°11'42810.8
2014-Jun-11 17:03N 37°26' E 024°03'2311.8
2014-Jun-11 15:05N 37°45' E 024°20'5712.2
2014-Jun-11 10:26N 38°26' E 025°10'1511.8
2014-Jun-11 09:11N 38°37' E 025°23'  

Dump ship's entire track history